• Join FlightAware (Why Join?)
  • Login
  • US Flag 
07:45AM EDT


 

Airport Tracker/Info


-or-


 

Live Flight TrackerFlight Track Log ✈ RLI717 ✈ 21-Jun-2013 ✈ KHPN - KBHB

Flight Track Log - Related Links

Times and Time Zones

All times are in EDT time to prevent confusion due to time zone crossing. See the RLI717 flight status page for this flight to view local times or setup timezone preferences in your user account.

Time Position Orientation Groundspeed Altitude Reporting Facility
EDT Latitude Longitude Course Direction KTS MPH feet Rate Location/Type
12:54PM 41.1500 -73.6333 56° Northeast 244 281 4,300  Level New York TRACON
12:55PM 41.2000 -73.5667 45° Northeast 269 310 6,900 2,340 Climbing New York TRACON
12:57PM 41.3253 -73.3853 47° Northeast 282 325 12,300 2,100 Climbing Boston Center
12:58PM 41.2533 -73.4371 47° Northeast  Level Estimated
12:58PM 41.3822 -73.3061 46° Northeast 287 330 14,100  Level Boston Center
12:59PM 41.4433 -73.2156 48° Northeast 299 344 16,000 1,620 Climbing Boston Center
01:00PM 41.5022 -73.1303 47° Northeast 304 350 17,400 720 Climbing Boston Center
01:01PM 41.5672 -73.0311 49° Northeast 341 392 17,500  Climbing Boston Center
01:02PM 41.6303 -72.9372 48° Northeast 364 419 17,500  Level Boston Center
01:03PM 41.6994 -72.8294 49° Northeast 354 407 17,500  Level Boston Center
01:04PM 41.7622 -72.7378 47° Northeast 354 407 17,500  Level Boston Center
01:05PM 41.8333 -72.6267 49° Northeast 359 413 17,500  Level Boston Center
01:06PM 41.8939 -72.5350 48° Northeast 359 413 17,500  Level Boston Center
01:07PM 41.9689 -72.4178 49° Northeast 359 413 17,500  Level Boston Center
01:08PM 42.0272 -72.3283 49° Northeast 359 413 17,500  Level Boston Center
01:09PM 42.1022 -72.2133 49° Northeast 359 413 17,500  Level Boston Center
01:10PM 42.1622 -72.1208 49° Northeast 359 413 17,500  Level Boston Center
01:11PM 42.2350 -72.0083 49° Northeast 359 413 17,500  Level Boston Center
01:12PM 42.3033 -71.9039 48° Northeast 359 413 17,500  Level Boston Center
01:13PM 42.3694 -71.7994 49° Northeast 366 421 17,500  Level Boston Center
01:14PM 42.4292 -71.7058 49° Northeast 360 414 17,500  Level Boston Center
01:15PM 42.5014 -71.5953 48° Northeast 360 414 17,500  Level Boston Center
01:16PM 42.5611 -71.5014 49° Northeast 360 414 17,500  Level Boston Center
01:17PM 42.6353 -71.3875 48° Northeast 360 414 17,500  Level Boston Center
01:18PM 42.6947 -71.2931 49° Northeast 360 414 17,500  Level Boston Center
01:19PM 42.7664 -71.1758 50° Northeast 360 414 17,500  Level Boston Center
01:20PM 42.8319 -71.0728 49° Northeast 360 414 17,500  Level Boston Center
01:21PM 42.8972 -70.9664 50° Northeast 360 414 17,500  Level Boston Center
01:22PM 42.9625 -70.8625 49° Northeast 360 414 17,500  Level Boston Center
01:23PM 43.0278 -70.7586 49° Northeast 360 414 17,500  Level Boston Center
01:24PM 43.0931 -70.6544 49° Northeast 360 414 17,500  Level Boston Center
01:25PM 43.1558 -70.5503 50° Northeast 360 414 17,500  Level Boston Center
01:26PM 43.2186 -70.4486 50° Northeast 355 409 17,500  Level Boston Center
01:27PM 43.2775 -70.3525 50° Northeast 361 415 17,500  Level Boston Center
01:28PM 43.3483 -70.2386 49° Northeast 355 409 17,500  Level Boston Center
01:29PM 43.4028 -70.1481 50° Northeast 355 409 17,500  Level Boston Center
01:30PM 43.4714 -70.0339 50° Northeast 355 409 17,500  Level Boston Center
01:31PM 43.5297 -69.9400 49° Northeast 355 409 17,500  Level Boston Center
01:32PM 43.5958 -69.8256 51° Northeast 355 409 17,500  Level Boston Center
01:33PM 43.6481 -69.7400 50° Northeast 355 409 17,500  Level Boston Center
01:34PM 43.7242 -69.6131 50° Northeast 355 409 17,500  Level Boston Center
01:35PM 43.7781 -69.5183 52° Northeast 355 409 17,500  Level Boston Center
01:36PM 43.8481 -69.4028 50° Northeast 355 409 17,500  Level Boston Center
01:37PM 43.9119 -69.2958 50° Northeast 360 414 17,500 -900 Level Boston Center
01:38PM 43.9714 -69.1886 52° Northeast 360 414 15,700  Descending Boston Center
01:39PM 44.0311 -69.0872 51° Northeast 354 407 17,500 -1,740 Climbing Boston Center
01:40PM 44.0928 -68.9883 49° Northeast 343 395 12,300 -3,540 Descending Boston Center
01:41PM 44.1503 -68.8894 51° Northeast 338 389 10,500 -1,680 Descending Boston Center
01:42PM 44.2017 -68.7994 51° Northeast 317 365 9,000 -1,620 Descending Boston Center
01:43PM 44.2531 -68.7122 51° Northeast 300 345 7,300 -1,680 Descending Boston Center
01:44PM 44.3003 -68.6281 52° Northeast 282 325 5,700 -1,140 Descending Boston Center
01:45PM 44.3458 -68.5525 50° Northeast 282 325 5,100 -600 Descending Boston Center